createdAt,value
2023-01-20T00:01:27.125Z,-0.40
2023-01-20T00:03:55.474Z,-0.40
2023-01-20T00:06:23.191Z,-0.40
2023-01-20T00:08:54.178Z,-0.40
2023-01-20T00:11:21.429Z,-0.40
2023-01-20T00:13:48.607Z,-0.40
2023-01-20T00:16:15.485Z,-0.40
2023-01-20T00:18:42.268Z,-0.40
2023-01-20T00:21:14.153Z,-0.40
2023-01-20T00:23:41.266Z,-0.40
2023-01-20T00:26:16.345Z,-0.40
2023-01-20T00:28:43.698Z,-0.30
2023-01-20T00:31:20.792Z,-0.40
2023-01-20T00:33:49.199Z,-0.30
2023-01-20T00:36:17.577Z,-0.30
2023-01-20T00:38:44.705Z,-0.30
2023-01-20T00:41:11.614Z,-0.30
2023-01-20T00:43:38.948Z,-0.30
2023-01-20T00:46:06.439Z,-0.30
2023-01-20T00:48:33.945Z,-0.30
2023-01-20T00:51:01.037Z,-0.30
2023-01-20T00:53:28.041Z,-0.20
2023-01-20T00:55:54.878Z,-0.30
2023-01-20T00:58:21.982Z,-0.20
2023-01-20T01:00:53.023Z,-0.20
2023-01-20T01:03:20.176Z,-0.20
2023-01-20T01:05:47.241Z,-0.20
2023-01-20T01:08:14.461Z,-0.20
2023-01-20T01:10:41.258Z,-0.20
2023-01-20T01:13:08.340Z,-0.20
2023-01-20T01:15:35.502Z,-0.10
2023-01-20T01:18:02.811Z,-0.20
2023-01-20T01:20:29.949Z,-0.10
2023-01-20T01:22:56.756Z,-0.10
2023-01-20T01:25:24.000Z,-0.10
2023-01-20T01:27:50.912Z,-0.10
2023-01-20T01:30:17.782Z,-0.10
2023-01-20T01:32:44.429Z,-0.10
2023-01-20T01:35:11.160Z,-0.10
2023-01-20T01:37:37.945Z,-0.10
2023-01-20T01:40:05.235Z,-0.10
2023-01-20T01:42:31.919Z,-0.10
2023-01-20T01:45:11.408Z,-0.10
2023-01-20T01:47:42.583Z,0.00
2023-01-20T01:50:14.307Z,0.00
2023-01-20T01:52:44.487Z,0.00
2023-01-20T01:55:12.231Z,0.00
2023-01-20T01:57:39.159Z,0.00
2023-01-20T02:00:07.053Z,0.00
2023-01-20T02:02:33.802Z,0.00
2023-01-20T02:05:00.607Z,0.00
2023-01-20T02:07:27.507Z,0.10
2023-01-20T02:09:54.334Z,0.10
2023-01-20T02:12:22.148Z,0.10
2023-01-20T02:14:54.689Z,0.10
2023-01-20T02:17:44.091Z,0.00
2023-01-20T02:20:24.120Z,0.10
2023-01-20T02:22:53.769Z,0.10
2023-01-20T02:25:20.399Z,0.10
2023-01-20T02:28:05.828Z,0.10
2023-01-20T02:30:54.368Z,0.10
2023-01-20T02:33:56.018Z,0.10
2023-01-20T02:36:31.867Z,0.10
2023-01-20T02:39:06.489Z,0.10
2023-01-20T02:41:54.514Z,0.20
2023-01-20T02:44:31.214Z,0.30
2023-01-20T02:47:04.100Z,0.30
2023-01-20T02:49:39.206Z,0.30
2023-01-20T02:52:18.681Z,0.40
2023-01-20T02:54:49.772Z,0.40
2023-01-20T02:57:22.783Z,0.40
2023-01-20T02:59:53.745Z,0.50
2023-01-20T03:02:24.434Z,0.50
2023-01-20T03:04:57.951Z,0.50
2023-01-20T03:07:27.395Z,0.50
2023-01-20T03:09:58.692Z,0.50
2023-01-20T03:12:36.121Z,0.50
2023-01-20T03:15:03.435Z,0.50
2023-01-20T03:17:30.195Z,0.40
2023-01-20T03:19:57.021Z,0.40
2023-01-20T03:22:23.797Z,0.50
2023-01-20T03:24:51.057Z,0.50
2023-01-20T03:27:17.923Z,0.50
2023-01-20T03:29:44.728Z,0.50
2023-01-20T03:32:12.925Z,0.40
2023-01-20T03:34:42.894Z,0.40
2023-01-20T03:37:12.331Z,0.50
2023-01-20T03:39:39.997Z,0.50
2023-01-20T03:42:39.459Z,0.50
2023-01-20T03:45:09.425Z,0.50
2023-01-20T03:47:57.475Z,0.50
2023-01-20T03:50:40.937Z,0.50
2023-01-20T03:53:24.650Z,0.50
2023-01-20T03:56:10.626Z,0.60
2023-01-20T03:58:40.726Z,0.60
2023-01-20T04:01:18.747Z,0.60
2023-01-20T04:03:48.778Z,0.60
2023-01-20T04:06:17.892Z,0.70
2023-01-20T04:08:56.490Z,0.60
2023-01-20T04:11:23.640Z,0.60
2023-01-20T04:13:50.939Z,0.60
2023-01-20T04:16:19.125Z,0.60
2023-01-20T04:18:48.552Z,0.60
2023-01-20T04:21:29.089Z,0.60
2023-01-20T04:24:03.477Z,0.50
2023-01-20T04:26:30.191Z,0.50
2023-01-20T04:28:56.881Z,0.50
2023-01-20T04:31:30.574Z,0.50
2023-01-20T04:33:57.970Z,0.50
2023-01-20T04:36:24.694Z,0.50
2023-01-20T04:38:51.446Z,0.50
2023-01-20T04:41:18.196Z,0.50
2023-01-20T04:43:46.054Z,0.50
2023-01-20T04:46:16.521Z,0.50
2023-01-20T04:48:44.778Z,0.50
2023-01-20T04:51:11.583Z,0.50
2023-01-20T04:53:38.324Z,0.50
2023-01-20T04:56:10.021Z,0.40
2023-01-20T04:58:36.694Z,0.50
2023-01-20T05:01:03.369Z,0.50
2023-01-20T05:03:30.185Z,0.50
2023-01-20T05:05:56.904Z,0.50
2023-01-20T05:08:23.627Z,0.50
2023-01-20T05:10:50.448Z,0.50
2023-01-20T05:13:17.144Z,0.50
2023-01-20T05:15:44.411Z,0.50
2023-01-20T05:18:11.148Z,0.50
2023-01-20T05:20:37.851Z,0.50
2023-01-20T05:23:04.803Z,0.50
2023-01-20T05:25:31.477Z,0.50
2023-01-20T05:27:59.519Z,0.50
2023-01-20T05:30:26.309Z,0.50
2023-01-20T05:32:53.136Z,0.50
2023-01-20T05:35:20.105Z,0.50
2023-01-20T05:37:46.856Z,0.50
2023-01-20T05:40:14.116Z,0.50
2023-01-20T05:42:40.964Z,0.50
2023-01-20T05:45:09.220Z,0.50
2023-01-20T05:47:36.072Z,0.60
2023-01-20T05:50:03.460Z,0.60
2023-01-20T05:52:30.193Z,0.60
2023-01-20T05:54:56.937Z,0.60
2023-01-20T05:57:27.017Z,0.60
2023-01-20T05:59:55.575Z,0.60
2023-01-20T06:02:22.419Z,0.60
2023-01-20T06:04:49.698Z,0.60
2023-01-20T06:07:16.494Z,0.60
2023-01-20T06:09:43.198Z,0.60
2023-01-20T06:12:09.870Z,0.60
2023-01-20T06:14:36.560Z,0.70
2023-01-20T06:17:03.337Z,0.60
2023-01-20T06:19:30.078Z,0.60
2023-01-20T06:21:56.784Z,0.60
2023-01-20T06:24:23.435Z,0.60
2023-01-20T06:26:51.314Z,0.60
2023-01-20T06:29:18.170Z,0.60
2023-01-20T06:31:45.595Z,0.60
2023-01-20T06:34:12.827Z,0.60
2023-01-20T06:36:39.919Z,0.60
2023-01-20T06:39:06.669Z,0.50
2023-01-20T06:41:33.424Z,0.50
2023-01-20T06:44:00.116Z,0.50
2023-01-20T06:46:26.924Z,0.50
2023-01-20T06:49:00.236Z,0.50
2023-01-20T06:51:28.884Z,0.60
2023-01-20T06:53:56.105Z,0.60
2023-01-20T06:56:23.214Z,0.60
2023-01-20T06:58:50.317Z,0.50
2023-01-20T07:01:29.045Z,0.60
2023-01-20T07:03:55.887Z,0.60
2023-01-20T07:06:28.318Z,0.60
2023-01-20T07:08:58.581Z,0.60
2023-01-20T07:11:25.958Z,0.60
2023-01-20T07:13:52.670Z,0.60
2023-01-20T07:16:19.563Z,0.60
2023-01-20T07:18:52.025Z,0.60
2023-01-20T07:21:19.364Z,0.60
2023-01-20T07:23:46.499Z,0.60
2023-01-20T07:26:19.205Z,0.60
2023-01-20T07:28:46.844Z,0.60
2023-01-20T07:31:19.574Z,0.60
2023-01-20T07:33:46.930Z,0.60
2023-01-20T07:36:14.568Z,0.60
2023-01-20T07:38:41.276Z,0.70
2023-01-20T07:41:11.835Z,0.70
2023-01-20T07:43:38.552Z,0.70
2023-01-20T07:46:05.497Z,0.70
2023-01-20T07:48:33.411Z,0.70
2023-01-20T07:51:05.617Z,0.70
2023-01-20T07:53:38.108Z,0.70
2023-01-20T07:56:13.821Z,0.70
2023-01-20T07:58:40.646Z,0.70
2023-01-20T08:01:13.219Z,0.70
2023-01-20T08:03:40.250Z,0.80
2023-01-20T08:06:09.189Z,0.80
2023-01-20T08:08:36.145Z,0.80
2023-01-20T08:11:04.103Z,0.80
2023-01-20T08:13:31.624Z,0.80
2023-01-20T08:16:07.539Z,0.80
2023-01-20T08:18:35.616Z,0.90
2023-01-20T08:21:08.124Z,1.00
2023-01-20T08:23:36.009Z,0.90
2023-01-20T08:26:05.608Z,1.00
2023-01-20T08:28:37.516Z,0.90
2023-01-20T08:31:12.380Z,0.90
2023-01-20T08:33:42.209Z,0.90
2023-01-20T08:36:13.186Z,1.00
2023-01-20T08:38:40.627Z,1.00
2023-01-20T08:41:13.541Z,1.00
2023-01-20T08:43:40.437Z,0.90
2023-01-20T08:46:14.165Z,1.00
2023-01-20T08:48:42.531Z,1.00
2023-01-20T08:51:15.800Z,1.00
2023-01-20T08:53:43.385Z,1.00
2023-01-20T08:56:11.430Z,1.00
2023-01-20T08:58:38.251Z,1.10
2023-01-20T09:01:09.543Z,1.10
2023-01-20T09:03:36.466Z,1.10
2023-01-20T09:06:04.530Z,1.00
2023-01-20T09:08:31.332Z,1.00
2023-01-20T09:11:10.503Z,1.00
2023-01-20T09:13:37.601Z,1.00
2023-01-20T09:16:05.019Z,1.00
2023-01-20T09:18:32.736Z,1.00
2023-01-20T09:21:00.141Z,1.10
2023-01-20T09:23:26.949Z,1.00
2023-01-20T09:25:53.873Z,1.10
2023-01-20T09:28:20.770Z,1.10
2023-01-20T09:30:47.580Z,1.10
2023-01-20T09:33:15.059Z,1.10
2023-01-20T09:35:41.764Z,1.10
2023-01-20T09:38:28.571Z,1.10
2023-01-20T09:41:49.237Z,1.00
2023-01-20T09:44:27.608Z,1.10
2023-01-20T09:47:21.645Z,1.10
2023-01-20T09:50:49.912Z,1.10
2023-01-20T09:53:42.970Z,1.20
2023-01-20T09:56:16.503Z,1.20
2023-01-20T09:59:05.268Z,1.10
2023-01-20T10:01:57.129Z,1.10
2023-01-20T10:04:26.883Z,1.10
2023-01-20T10:07:22.594Z,1.10
2023-01-20T10:10:12.308Z,1.10
2023-01-20T10:13:02.077Z,1.10
2023-01-20T10:15:35.053Z,1.10
2023-01-20T10:18:14.887Z,1.00
2023-01-20T10:20:51.028Z,0.90
2023-01-20T10:23:42.862Z,1.00
2023-01-20T10:26:30.884Z,1.00
2023-01-20T10:29:07.269Z,1.00
2023-01-20T10:31:40.770Z,1.00
2023-01-20T10:34:12.671Z,1.10
2023-01-20T10:36:43.315Z,1.00
2023-01-20T10:39:49.185Z,1.00
2023-01-20T10:42:18.663Z,1.10
2023-01-20T10:44:47.040Z,1.10
2023-01-20T10:47:32.479Z,1.10
2023-01-20T10:50:02.174Z,1.20
2023-01-20T10:52:46.128Z,1.10
2023-01-20T10:56:06.555Z,1.00
2023-01-20T10:58:39.222Z,1.00
2023-01-20T11:01:10.450Z,1.00
2023-01-20T11:03:41.616Z,1.00
2023-01-20T11:06:18.192Z,1.10
2023-01-20T11:08:44.990Z,1.00
2023-01-20T11:11:17.772Z,1.00
2023-01-20T11:13:44.610Z,1.00
2023-01-20T11:16:23.066Z,1.10
2023-01-20T11:19:04.710Z,1.10
2023-01-20T11:21:35.851Z,1.10
2023-01-20T11:24:21.822Z,1.10
2023-01-20T11:26:48.587Z,1.10
2023-01-20T11:29:15.206Z,1.20
2023-01-20T11:31:50.018Z,1.20
2023-01-20T11:34:24.218Z,1.20
2023-01-20T11:36:51.699Z,1.30
2023-01-20T11:39:30.769Z,1.30
2023-01-20T11:42:23.975Z,1.30
2023-01-20T11:44:50.586Z,1.40
2023-01-20T11:47:26.415Z,1.30
2023-01-20T11:50:08.028Z,1.40
2023-01-20T11:52:47.152Z,1.40
2023-01-20T11:55:24.634Z,1.40
2023-01-20T11:57:58.523Z,1.40
2023-01-20T12:00:41.093Z,1.40
2023-01-20T12:03:10.749Z,1.40
2023-01-20T12:05:49.527Z,1.30
2023-01-20T12:08:25.914Z,1.40
2023-01-20T12:10:55.526Z,1.40
2023-01-20T12:14:13.300Z,1.40
2023-01-20T12:16:40.827Z,1.30
2023-01-20T12:19:15.211Z,1.30
2023-01-20T12:21:48.023Z,1.30
2023-01-20T12:25:01.213Z,1.20
2023-01-20T12:27:28.484Z,1.20
2023-01-20T12:30:02.039Z,1.20
2023-01-20T12:32:29.794Z,1.10
2023-01-20T12:34:56.626Z,1.10
2023-01-20T12:37:43.269Z,1.10
2023-01-20T12:40:28.748Z,1.10
2023-01-20T12:43:16.557Z,1.10
2023-01-20T12:45:46.270Z,1.10
2023-01-20T12:48:46.804Z,1.10
2023-01-20T12:51:45.799Z,1.10
2023-01-20T12:54:23.731Z,1.20
2023-01-20T12:57:05.467Z,1.20
2023-01-20T12:59:59.921Z,1.20
2023-01-20T13:02:38.832Z,1.30
2023-01-20T13:05:26.914Z,1.20
2023-01-20T13:08:10.560Z,1.20
2023-01-20T13:10:51.653Z,1.20
2023-01-20T13:13:26.268Z,1.20
2023-01-20T13:15:55.684Z,1.20
2023-01-20T13:18:34.020Z,1.20
2023-01-20T13:21:00.766Z,1.20
2023-01-20T13:23:36.875Z,1.20
2023-01-20T13:26:05.890Z,1.20
2023-01-20T13:28:32.870Z,1.20
2023-01-20T13:31:01.768Z,1.30
2023-01-20T13:33:42.196Z,1.20
2023-01-20T13:36:18.494Z,1.30
2023-01-20T13:38:46.654Z,1.30
2023-01-20T13:41:51.944Z,1.20
2023-01-20T13:44:40.818Z,1.30
2023-01-20T13:47:10.853Z,1.30
2023-01-20T13:49:53.091Z,1.30
2023-01-20T13:52:51.167Z,1.30
2023-01-20T13:55:45.855Z,1.30
2023-01-20T13:58:16.312Z,1.30
2023-01-20T14:00:43.633Z,1.30
2023-01-20T14:03:30.635Z,1.30
2023-01-20T14:06:14.014Z,1.30
2023-01-20T14:08:41.827Z,1.20
2023-01-20T14:11:17.527Z,1.20
2023-01-20T14:13:53.211Z,1.20
2023-01-20T14:16:27.154Z,1.20
2023-01-20T14:19:02.397Z,1.20
2023-01-20T14:21:31.167Z,1.10
2023-01-20T14:23:58.573Z,1.10
2023-01-20T14:26:30.804Z,1.10
2023-01-20T14:28:59.863Z,1.10
2023-01-20T14:31:44.057Z,1.00
2023-01-20T14:34:26.759Z,1.00
2023-01-20T14:36:55.395Z,1.00
2023-01-20T14:39:27.425Z,1.00
2023-01-20T14:42:01.488Z,1.00
2023-01-20T14:44:32.576Z,1.00
2023-01-20T14:47:02.465Z,1.00
2023-01-20T14:49:34.637Z,0.90
2023-01-20T14:52:02.241Z,0.90
2023-01-20T14:54:36.930Z,0.90
2023-01-20T14:57:22.449Z,1.00
2023-01-20T15:00:11.230Z,0.90
2023-01-20T15:02:39.548Z,0.90
2023-01-20T15:05:51.889Z,0.90
2023-01-20T15:08:25.993Z,0.90
2023-01-20T15:11:18.159Z,0.90
2023-01-20T15:14:02.487Z,0.90
2023-01-20T15:16:36.244Z,0.90
2023-01-20T15:19:18.487Z,0.90
2023-01-20T15:21:48.125Z,0.90
2023-01-20T15:24:23.039Z,0.90
2023-01-20T15:26:52.331Z,0.80
2023-01-20T15:29:34.687Z,0.80
2023-01-20T15:32:09.873Z,0.80
2023-01-20T15:34:36.620Z,0.80
2023-01-20T15:37:09.274Z,0.80
2023-01-20T15:39:36.013Z,0.70
2023-01-20T15:42:02.926Z,0.80
2023-01-20T15:44:29.687Z,0.80
2023-01-20T15:46:57.616Z,0.70
2023-01-20T15:49:25.219Z,0.70
2023-01-20T15:51:52.221Z,0.70
2023-01-20T15:54:19.061Z,0.70
2023-01-20T15:56:45.835Z,0.60
2023-01-20T15:59:18.351Z,0.60
2023-01-20T16:01:47.211Z,0.60
2023-01-20T16:04:14.136Z,0.60
2023-01-20T16:06:41.039Z,0.60
2023-01-20T16:09:29.750Z,0.60
2023-01-20T16:11:56.585Z,0.60
2023-01-20T16:14:23.235Z,0.60
2023-01-20T16:16:50.095Z,0.60
2023-01-20T16:19:17.320Z,0.60
2023-01-20T16:21:45.603Z,0.60
2023-01-20T16:24:13.179Z,0.50
2023-01-20T16:26:40.493Z,0.50
2023-01-20T16:29:09.453Z,0.50
2023-01-20T16:31:36.413Z,0.50
2023-01-20T16:34:04.280Z,0.50
2023-01-20T16:36:31.075Z,0.50
2023-01-20T16:38:57.720Z,0.50
2023-01-20T16:41:30.865Z,0.40
2023-01-20T16:43:58.452Z,0.40
2023-01-20T16:46:29.934Z,0.30
2023-01-20T16:49:01.890Z,0.30
2023-01-20T16:51:29.509Z,0.30
2023-01-20T16:53:57.109Z,0.40
2023-01-20T16:56:27.651Z,0.30
2023-01-20T16:58:57.684Z,0.30
2023-01-20T17:01:25.577Z,0.30
2023-01-20T17:03:54.262Z,0.30
2023-01-20T17:06:23.239Z,0.30
2023-01-20T17:08:52.546Z,0.20
2023-01-20T17:11:26.404Z,0.20
2023-01-20T17:13:54.064Z,0.10
2023-01-20T17:16:21.226Z,0.20
2023-01-20T17:18:52.976Z,0.10
2023-01-20T17:21:20.875Z,0.10
2023-01-20T17:23:53.701Z,0.10
2023-01-20T17:26:20.782Z,0.10
2023-01-20T17:28:48.240Z,0.10
2023-01-20T17:31:15.067Z,0.10
2023-01-20T17:33:48.554Z,0.10
2023-01-20T17:36:16.876Z,0.10
2023-01-20T17:38:43.825Z,0.00
2023-01-20T17:41:11.565Z,0.00
2023-01-20T17:43:41.083Z,0.00
2023-01-20T17:46:19.569Z,0.00
2023-01-20T17:48:46.873Z,-0.10
2023-01-20T17:51:19.363Z,0.00
2023-01-20T17:53:46.725Z,-0.10
2023-01-20T17:56:14.741Z,-0.10
2023-01-20T17:58:43.339Z,-0.10
2023-01-20T18:01:20.005Z,-0.10
2023-01-20T18:03:49.150Z,-0.20
2023-01-20T18:06:17.993Z,-0.10
2023-01-20T18:08:49.873Z,-0.10
2023-01-20T18:11:16.591Z,-0.10
2023-01-20T18:13:45.614Z,-0.10
2023-01-20T18:16:14.087Z,-0.10
2023-01-20T18:18:43.226Z,-0.10
2023-01-20T18:21:14.399Z,-0.10
2023-01-20T18:23:41.841Z,-0.10
2023-01-20T18:26:09.670Z,-0.10
2023-01-20T18:28:37.538Z,-0.10
2023-01-20T18:31:09.734Z,0.00
2023-01-20T18:33:39.638Z,-0.10
2023-01-20T18:36:07.874Z,0.00
2023-01-20T18:38:34.691Z,-0.10
2023-01-20T18:41:04.135Z,-0.10
2023-01-20T18:43:31.250Z,-0.10
2023-01-20T18:45:58.043Z,0.00
2023-01-20T18:48:25.357Z,0.00
2023-01-20T18:50:57.961Z,0.00
2023-01-20T18:53:24.655Z,0.00
2023-01-20T18:55:51.286Z,0.00
2023-01-20T18:58:18.024Z,0.00
2023-01-20T19:00:44.671Z,0.00
2023-01-20T19:03:11.387Z,-0.10
2023-01-20T19:05:38.107Z,-0.10
2023-01-20T19:08:05.207Z,-0.20
2023-01-20T19:10:31.965Z,-0.20
2023-01-20T19:12:58.578Z,-0.20
2023-01-20T19:15:25.455Z,-0.10
2023-01-20T19:17:52.332Z,-0.10
2023-01-20T19:20:19.096Z,-0.20
2023-01-20T19:22:45.755Z,-0.10
2023-01-20T19:25:12.502Z,-0.20
2023-01-20T19:27:39.158Z,-0.20
2023-01-20T19:30:06.684Z,-0.20
2023-01-20T19:32:33.341Z,-0.20
2023-01-20T19:35:00.020Z,-0.20
2023-01-20T19:37:27.908Z,-0.20
2023-01-20T19:39:54.563Z,-0.20
2023-01-20T19:42:21.223Z,-0.20
2023-01-20T19:44:47.900Z,-0.30
2023-01-20T19:47:14.749Z,-0.30
2023-01-20T19:49:41.932Z,-0.30
2023-01-20T19:52:08.700Z,-0.30
2023-01-20T19:54:36.821Z,-0.30
2023-01-20T19:57:03.834Z,-0.30
2023-01-20T19:59:30.575Z,-0.30
2023-01-20T20:01:57.277Z,-0.30
2023-01-20T20:04:25.378Z,-0.20
2023-01-20T20:06:52.293Z,-0.20
2023-01-20T20:09:21.142Z,-0.20
2023-01-20T20:11:49.041Z,-0.20
2023-01-20T20:14:19.301Z,-0.30
2023-01-20T20:16:46.354Z,-0.30
2023-01-20T20:19:16.188Z,-0.30
2023-01-20T20:21:43.220Z,-0.30
2023-01-20T20:24:15.109Z,-0.30
2023-01-20T20:26:42.121Z,-0.30
2023-01-20T20:29:10.236Z,-0.30
2023-01-20T20:31:40.047Z,-0.30
2023-01-20T20:34:08.786Z,-0.20
2023-01-20T20:36:35.874Z,-0.20
2023-01-20T20:39:03.965Z,-0.20
2023-01-20T20:41:33.175Z,-0.20
2023-01-20T20:44:01.545Z,-0.30
2023-01-20T20:46:29.557Z,-0.30
2023-01-20T20:48:59.410Z,-0.30
2023-01-20T20:51:27.565Z,-0.30
2023-01-20T20:53:58.137Z,-0.20
2023-01-20T20:56:27.861Z,-0.20
2023-01-20T20:59:01.820Z,-0.20
2023-01-20T21:01:30.977Z,-0.20
2023-01-20T21:04:00.191Z,-0.20
2023-01-20T21:06:26.950Z,-0.20
2023-01-20T21:08:53.597Z,-0.20
2023-01-20T21:11:20.777Z,-0.20
2023-01-20T21:13:49.382Z,-0.20
2023-01-20T21:16:20.784Z,-0.20
2023-01-20T21:18:48.253Z,-0.20
2023-01-20T21:21:17.030Z,-0.20
2023-01-20T21:23:47.364Z,-0.20
2023-01-20T21:26:14.076Z,-0.30
2023-01-20T21:28:42.604Z,-0.40
2023-01-20T21:31:15.711Z,-0.50
2023-01-20T21:33:45.813Z,-0.50
2023-01-20T21:36:13.322Z,-0.40
2023-01-20T21:38:46.306Z,-0.50
2023-01-20T21:41:14.536Z,-0.50
2023-01-20T21:44:02.247Z,-0.50
2023-01-20T21:46:31.697Z,-0.50
2023-01-20T21:49:16.884Z,-0.50
2023-01-20T21:52:02.331Z,-0.50
2023-01-20T21:54:30.397Z,-0.50
2023-01-20T21:56:57.524Z,-0.60
2023-01-20T21:59:24.288Z,-0.70
2023-01-20T22:01:51.747Z,-0.70
2023-01-20T22:04:18.804Z,-0.70
2023-01-20T22:06:45.815Z,-0.80
2023-01-20T22:09:12.815Z,-0.70
2023-01-20T22:11:39.546Z,-0.80
2023-01-20T22:14:06.299Z,-0.70
2023-01-20T22:16:33.209Z,-0.70
2023-01-20T22:19:00.025Z,-0.60
2023-01-20T22:21:26.901Z,-0.70
2023-01-20T22:23:53.792Z,-0.70
2023-01-20T22:26:20.962Z,-0.70
2023-01-20T22:28:47.602Z,-0.60
2023-01-20T22:31:19.773Z,-0.60
2023-01-20T22:33:53.812Z,-0.70
2023-01-20T22:36:21.637Z,-0.50
2023-01-20T22:38:52.980Z,-0.50
2023-01-20T22:41:20.377Z,-0.60
2023-01-20T22:43:48.060Z,-0.70
2023-01-20T22:46:17.133Z,-0.70
2023-01-20T22:48:43.870Z,-0.70
2023-01-20T22:51:16.087Z,-0.70
2023-01-20T22:53:43.252Z,-0.70
2023-01-20T22:56:15.819Z,-0.60
2023-01-20T22:58:44.305Z,-0.80
2023-01-20T23:01:20.957Z,-0.80
2023-01-20T23:03:48.941Z,-0.80
2023-01-20T23:06:15.746Z,-0.90
2023-01-20T23:08:42.560Z,-0.90
2023-01-20T23:11:12.486Z,-0.90
2023-01-20T23:13:39.954Z,-0.80
2023-01-20T23:16:09.980Z,-0.90
2023-01-20T23:18:36.971Z,-0.90
2023-01-20T23:21:05.779Z,-0.80
2023-01-20T23:23:32.558Z,-0.80
2023-01-20T23:26:15.543Z,-0.80
2023-01-20T23:28:43.610Z,-0.80
2023-01-20T23:31:12.558Z,-0.90
2023-01-20T23:33:40.814Z,-0.80
2023-01-20T23:36:13.851Z,-0.80
2023-01-20T23:38:41.073Z,-0.80
2023-01-20T23:41:07.853Z,-0.80
2023-01-20T23:43:34.706Z,-0.80
2023-01-20T23:46:04.129Z,-0.80
2023-01-20T23:48:31.489Z,-0.80
2023-01-20T23:51:01.908Z,-0.90
2023-01-20T23:53:31.341Z,-0.80
2023-01-20T23:56:02.438Z,-0.70
2023-01-20T23:58:29.561Z,-0.70
